Ana Sayfa
METAR-TAF:

METAR-TAF

Havaalanları :

Bullsbrook, Avustralya

Enlem: 31-40S, Boylam: 116-01E, yükseklik: 45 m

Güncel hava durumu gözlemi

Rapor saat 18:30 UTC de 20 dakika önce yapıldı.
Rüzgar güneybatıdan 3 kt
Sıcaklık 9°C
Nem 57%
Basınç 1021 hPa
Görüş mesafesi 10 km veya daha fazla

METAR: YPEA 191830Z AUTO 22003KT 9999 // NCD 09/01 Q1021

Saat: 02:50 (18:50 UTC)

Tahmin

Rapor saat 16:08 UTC de 2 saat ve 42 dakika önce yapıldı.
Ayın 19'si saat 18 UTC'den ayın 20'si saat 12 UTC'ye kadar geçerli Tahmin
Rüzgar doğu/kuzeydoğudan 10 kt
Görüş mesafesi 10 km veya daha fazla
1500 m altında bulut yok ve kümülonimbus yok

TAF: YPEA 191608Z 1918/2012 07010KT CAVOK

4.000'den fazla havaalanı için hava durumu gözlemleri ve tahminleri (METAR ve TAF raporları).

Kullanılabilir istasyonlar harita üzerinde sarı ve kırmızı noktalarla gösterilir.

İstasyonun adını görmek için fareyi noktanın üzerinde gezdirin.

Sonrasında hava gözlem ve tahminlerini görmek için tıklayın.

Haritayı değiştirmek için: yaklaştırmak için siyah artı işaretli yeşil düğmeye ve uzaklaştırmak için de eksi işaretli düğmeye hızla tıklayın; bitişik haritalar için yeşil okları kullanın.


METAR-TAF: